Time;durP1;ratioP1;P1;durP2;ratioP2;P2;SDS_P1;SDS_P2;PMS_P1;PMS_P2;Temp;Humidity;BMP_temperature;BMP_pressure;BME280_temperature;BME280_humidity;BME280_pressure;Samples;Min_cycle;Max_cycle;Signal;HPM_P1;HPM_P2
2022/03/10 00:01:45;;;;;;;0.00;0.00;;;;;;;8.23;81.98;100393.25;7354534;19;20074;-65
2022/03/10 00:04:11;;;;;;;0.00;0.00;;;;;;;8.18;81.81;100383.81;7350820;19;20031;-64
2022/03/10 00:06:36;;;;;;;0.00;0.00;;;;;;;8.23;81.85;100395.84;7354183;19;20736;-64
2022/03/10 00:09:02;;;;;;;0.00;0.00;;;;;;;8.23;81.93;100393.25;7353168;19;20034;-65
2022/03/10 00:11:28;;;;;;;0.00;0.00;;;;;;;8.07;81.96;100371.84;7346704;19;20014;-64
2022/03/10 00:13:54;;;;;;;0.10;0.10;;;;;;;8.22;81.76;100396.72;7351305;19;20784;-64
2022/03/10 00:16:20;;;;;;;0.08;0.08;;;;;;;8.18;81.66;100394.22;7348948;19;20035;-65
2022/03/10 00:18:46;;;;;;;0.00;0.00;;;;;;;8.18;81.46;100389.00;7351840;19;20855;-65
2022/03/10 00:21:11;;;;;;;0.05;0.05;;;;;;;8.16;81.74;100390.75;7345888;19;20011;-65
2022/03/10 00:23:37;;;;;;;0.00;0.00;;;;;;;8.14;81.61;100392.53;7354727;19;20011;-65
2022/03/10 00:26:02;;;;;;;0.00;0.00;;;;;;;8.12;81.92;100383.91;7352848;19;20989;-65
2022/03/10 00:28:28;;;;;;;0.00;0.00;;;;;;;8.11;81.74;100382.19;7352782;19;20089;-65
2022/03/10 00:30:53;;;;;;;0.00;0.00;;;;;;;8.09;81.86;100378.75;7343328;19;20034;-64
2022/03/10 00:33:19;;;;;;;0.00;0.00;;;;;;;8.09;82.03;100386.56;7353470;19;20014;-65
2022/03/10 00:35:44;;;;;;;0.00;0.00;;;;;;;8.06;81.86;100382.28;7354475;19;20473;-65
2022/03/10 00:38:10;;;;;;;0.00;0.00;;;;;;;8.05;81.44;100384.00;7354606;19;21096;-65
2022/03/10 00:40:35;;;;;;;0.10;0.10;;;;;;;8.04;81.77;100390.09;7351766;19;20006;-65
2022/03/10 00:43:01;;;;;;;0.10;0.10;;;;;;;8.00;81.56;100391.03;7352072;19;20043;-65
2022/03/10 00:45:26;;;;;;;0.10;0.10;;;;;;;7.99;81.44;100393.66;7355263;19;20826;-65
2022/03/10 00:47:52;;;;;;;0.00;0.00;;;;;;;7.97;81.81;100395.44;7350856;19;20354;-65
2022/03/10 00:50:18;;;;;;;0.00;0.00;;;;;;;7.96;81.69;100399.78;7350061;19;20023;-65
2022/03/10 00:52:45;;;;;;;0.00;0.00;;;;;;;7.93;81.81;100399.81;7353993;19;20006;-65
2022/03/10 00:55:12;;;;;;;0.00;0.00;;;;;;;7.80;81.91;100374.91;7347841;19;20010;-65
2022/03/10 00:57:38;;;;;;;0.00;0.00;;;;;;;7.92;81.97;100395.53;7354369;19;20038;-65
2022/03/10 01:00:05;;;;;;;0.00;0.00;;;;;;;7.93;81.91;100393.78;7350136;19;20489;-65
2022/03/10 01:02:47;;;;;;;0.10;0.10;;;;;;;7.95;81.96;100397.19;3103640;19;10024698;-65
2022/03/10 01:05:13;;;;;;;0.00;0.00;;;;;;;7.91;81.94;100396.41;6130223;19;10001338;-64
2022/03/10 01:07:38;;;;;;;0.00;0.00;;;;;;;7.90;81.72;100402.47;7348739;19;20548;-64
2022/03/10 01:10:05;;;;;;;0.00;0.00;;;;;;;7.90;81.71;100392.06;7357128;19;20028;-65
2022/03/10 01:12:31;;;;;;;0.00;0.00;;;;;;;7.84;81.67;100389.56;7355264;19;20096;-65
2022/03/10 01:14:58;;;;;;;0.00;0.00;;;;;;;7.90;82.07;100384.25;7355914;19;20022;-66
2022/03/10 01:17:23;;;;;;;0.00;0.00;;;;;;;7.90;82.16;100389.47;7351775;19;20027;-65
2022/03/10 01:19:49;;;;;;;0.00;0.00;;;;;;;7.91;82.15;100385.16;7353033;19;20644;-65
2022/03/10 01:22:15;;;;;;;0.00;0.00;;;;;;;7.89;82.17;100382.56;7356633;19;20014;-65
2022/03/10 01:24:41;;;;;;;0.00;0.00;;;;;;;7.90;81.91;100373.88;7350842;19;20025;-65
2022/03/10 01:27:07;;;;;;;0.10;0.10;;;;;;;7.91;82.13;100373.00;7346362;19;20030;-65
2022/03/10 01:29:33;;;;;;;0.10;0.10;;;;;;;7.92;82.17;100377.31;7350869;19;20014;-64
2022/03/10 01:31:58;;;;;;;0.00;0.00;;;;;;;7.93;82.01;100372.97;7351321;19;20035;-65
2022/03/10 01:34:24;;;;;;;0.10;0.10;;;;;;;7.92;81.89;100377.31;7356906;19;20018;-65
2022/03/10 01:36:50;;;;;;;0.10;0.10;;;;;;;7.94;81.86;100375.53;7351300;19;20011;-64
2022/03/10 01:39:15;;;;;;;0.00;0.00;;;;;;;7.95;82.16;100374.66;7354378;19;20560;-65
2022/03/10 01:41:41;;;;;;;0.00;0.00;;;;;;;7.97;81.87;100372.03;7351084;19;20002;-65
2022/03/10 01:44:09;;;;;;;0.00;0.00;;;;;;;7.88;81.80;100357.44;7353149;19;20010;-65
2022/03/10 01:46:35;;;;;;;0.00;0.00;;;;;;;7.97;82.08;100370.28;7355475;19;20015;-65
2022/03/10 01:49:02;;;;;;;0.00;0.00;;;;;;;7.97;81.95;100367.69;7348928;19;20014;-65
2022/03/10 01:51:28;;;;;;;0.00;0.00;;;;;;;7.97;81.84;100375.50;7355056;19;20018;-65
2022/03/10 01:53:54;;;;;;;0.00;0.00;;;;;;;7.96;81.87;100379.00;7353974;19;20735;-65
2022/03/10 01:56:21;;;;;;;0.00;0.00;;;;;;;7.98;82.10;100374.59;7352373;19;20002;-65
2022/03/10 01:58:48;;;;;;;0.00;0.00;;;;;;;7.88;82.07;100362.66;7351981;19;21361;-65
2022/03/10 02:01:15;;;;;;;0.00;0.00;;;;;;;7.99;82.18;100367.66;7352777;19;20034;-65
2022/03/10 02:03:41;;;;;;;0.00;0.00;;;;;;;7.94;82.12;100352.13;7355145;19;21910;-65
2022/03/10 02:06:08;;;;;;;0.00;0.00;;;;;;;7.88;81.97;100339.25;7351180;19;20430;-65
2022/03/10 02:11:19;;;;;;;0.00;0.00;;;;;;;8.02;81.87;100347.66;7356398;19;20358;-65
2022/03/10 02:13:45;;;;;;;0.00;0.00;;;;;;;8.03;82.16;100351.97;7356308;19;20019;-65
2022/03/10 02:18:55;;;;;;;0.10;0.10;;;;;;;8.05;81.80;100347.59;7353604;19;20494;-65
2022/03/10 02:21:21;;;;;;;0.10;0.10;;;;;;;8.00;82.23;100333.81;7346088;19;20010;-65
2022/03/10 02:23:46;;;;;;;0.00;0.00;;;;;;;8.05;82.09;100334.59;7353464;19;20022;-65
2022/03/10 02:26:12;;;;;;;0.00;0.00;;;;;;;8.07;82.12;100340.66;7352808;19;20017;-65
2022/03/10 02:28:40;;;;;;;0.00;0.00;;;;;;;8.10;81.64;100329.31;7349925;19;20014;-64
2022/03/10 02:31:05;;;;;;;0.00;0.00;;;;;;;8.11;81.75;100332.75;7355297;19;20079;-65
2022/03/10 02:33:31;;;;;;;0.00;0.00;;;;;;;8.04;82.06;100314.69;7353963;19;20058;-64
2022/03/10 02:35:56;;;;;;;0.00;0.00;;;;;;;8.12;81.87;100318.91;7360889;19;20154;-64
2022/03/10 02:38:22;;;;;;;0.00;0.00;;;;;;;8.12;81.71;100321.50;7361468;19;20035;-65
2022/03/10 02:40:49;;;;;;;0.00;0.00;;;;;;;8.13;81.86;100312.81;7360679;19;20090;-65
2022/03/10 02:43:15;;;;;;;0.00;0.00;;;;;;;8.08;81.93;100305.09;7359038;19;20014;-64
2022/03/10 02:45:41;;;;;;;0.10;0.10;;;;;;;7.97;81.91;100294.91;7357497;19;20018;-65
2022/03/10 02:48:06;;;;;;;0.10;0.10;;;;;;;8.14;82.12;100314.53;7358675;19;20046;-65
2022/03/10 02:50:32;;;;;;;0.00;0.00;;;;;;;8.16;82.10;100317.94;7361139;19;20021;-65
2022/03/10 02:52:57;;;;;;;0.10;0.10;;;;;;;8.17;81.62;100319.69;7360015;19;20022;-64
2022/03/10 02:55:23;;;;;;;0.08;0.08;;;;;;;8.16;81.62;100305.81;7357261;19;20034;-65
2022/03/10 02:57:49;;;;;;;0.00;0.00;;;;;;;8.18;81.98;100305.78;7347549;19;20352;-64
2022/03/10 03:00:16;;;;;;;0.00;0.00;;;;;;;8.18;81.96;100305.78;7354970;19;20072;-64
2022/03/10 03:02:42;;;;;;;0.00;0.00;;;;;;;8.18;81.68;100301.44;7357556;19;20006;-65
2022/03/10 03:05:14;;;;;;;0.00;0.00;;;;;;;8.17;81.98;100298.88;7356718;19;20778;-64
2022/03/10 03:07:40;;;;;;;0.00;0.00;;;;;;;8.17;81.66;100307.53;7354772;19;20018;-65
2022/03/10 03:10:15;;;;;;;0.10;0.10;;;;;;;8.19;81.46;100307.47;1656992;19;10021880;-65
2022/03/10 03:12:49;;;;;;;0.00;0.00;;;;;;;8.18;81.29;100313.59;7256690;19;2004260;-65
2022/03/10 03:15:16;;;;;;;0.00;0.00;;;;;;;8.15;81.36;100321.44;7353952;19;20014;-65
2022/03/10 03:17:41;;;;;;;0.00;0.00;;;;;;;8.12;81.50;100317.16;7352245;19;20934;-65
2022/03/10 03:20:09;;;;;;;0.00;0.00;;;;;;;8.12;81.60;100316.31;7357870;19;20105;-65
2022/03/10 03:22:35;;;;;;;0.00;0.00;;;;;;;8.10;81.48;100318.06;7354446;19;20414;-65
2022/03/10 03:25:00;;;;;;;0.00;0.00;;;;;;;8.02;81.28;100303.47;7355678;19;21062;-65
2022/03/10 03:27:26;;;;;;;0.00;0.00;;;;;;;8.04;81.45;100312.09;7345912;19;20042;-64
2022/03/10 03:29:51;;;;;;;0.00;0.00;;;;;;;7.99;81.56;100305.25;7358380;19;20131;-65
2022/03/10 03:32:16;;;;;;;0.00;0.00;;;;;;;8.02;81.23;100305.22;7355654;19;20021;-65
2022/03/10 03:34:42;;;;;;;0.00;0.00;;;;;;;7.87;81.35;100285.56;7353279;19;20017;-65
2022/03/10 03:37:07;;;;;;;0.00;0.00;;;;;;;7.98;81.33;100314.81;7356708;19;20011;-64
2022/03/10 03:39:33;;;;;;;0.00;0.00;;;;;;;7.95;81.35;100301.00;7356735;19;20498;-67
2022/03/10 03:41:59;;;;;;;0.00;0.00;;;;;;;7.93;81.46;100295.84;7352443;19;20014;-65
2022/03/10 03:44:24;;;;;;;0.00;0.00;;;;;;;7.90;81.65;100298.47;7350439;19;20018;-65
2022/03/10 03:46:50;;;;;;;0.00;0.00;;;;;;;7.84;81.61;100301.19;7357542;19;20109;-65
2022/03/10 03:49:15;;;;;;;0.00;0.00;;;;;;;7.88;81.42;100296.81;7351875;19;21954;-64
2022/03/10 03:51:41;;;;;;;0.00;0.00;;;;;;;7.80;81.58;100284.78;7356019;19;20026;-65
2022/03/10 03:54:07;;;;;;;0.10;0.10;;;;;;;7.77;81.19;100291.81;7357717;19;20023;-65
2022/03/10 03:56:34;;;;;;;0.00;0.00;;;;;;;7.79;81.49;100303.88;7352312;19;20018;-65
2022/03/10 03:58:59;;;;;;;0.00;0.00;;;;;;;7.77;81.64;100294.41;7352716;19;20021;-65
2022/03/10 04:01:25;;;;;;;0.00;0.00;;;;;;;7.76;81.17;100279.69;7356620;19;20019;-65
2022/03/10 04:03:50;;;;;;;0.03;0.03;;;;;;;7.73;81.10;100313.53;7355547;19;20021;-65
2022/03/10 04:06:16;;;;;;;0.10;0.10;;;;;;;7.70;81.23;100296.22;7346840;19;20034;-64
2022/03/10 04:08:42;;;;;;;0.00;0.00;;;;;;;7.67;81.36;100282.44;7357217;19;20938;-65
2022/03/10 04:11:07;;;;;;;0.00;0.00;;;;;;;7.52;81.56;100289.63;7360028;19;20007;-64
2022/03/10 04:13:33;;;;;;;0.05;0.05;;;;;;;7.63;81.39;100311.97;7355461;19;20007;-65
2022/03/10 04:15:58;;;;;;;0.00;0.00;;;;;;;7.62;81.42;100315.47;7357403;19;20036;-64
2022/03/10 04:18:24;;;;;;;0.00;0.00;;;;;;;7.44;81.29;100291.47;7354842;19;20006;-64
2022/03/10 04:20:49;;;;;;;0.00;0.00;;;;;;;7.58;81.62;100304.25;7355926;19;20382;-64
2022/03/10 04:23:15;;;;;;;0.00;0.00;;;;;;;7.57;81.56;100301.69;7356355;19;20039;-65
2022/03/10 04:25:41;;;;;;;0.00;0.00;;;;;;;7.56;81.50;100294.78;7357639;19;20002;-65
2022/03/10 04:28:07;;;;;;;0.00;0.00;;;;;;;7.52;81.35;100294.81;7361348;19;20002;-65
2022/03/10 04:30:37;;;;;;;0.00;0.00;;;;;;;7.50;81.51;100294.00;7364127;19;20010;-64
2022/03/10 04:33:02;;;;;;;0.10;0.10;;;;;;;7.50;81.58;100291.41;7354699;19;20007;-65
2022/03/10 04:35:29;;;;;;;0.00;0.00;;;;;;;7.49;81.38;100294.84;7358149;19;20006;-64
2022/03/10 04:37:55;;;;;;;0.00;0.00;;;;;;;7.48;81.28;100287.94;7358537;19;20010;-64
2022/03/10 04:40:22;;;;;;;0.05;0.05;;;;;;;7.47;81.54;100296.63;7357755;19;20026;-65
2022/03/10 04:42:49;;;;;;;0.00;0.00;;;;;;;7.39;81.64;100295.88;7359144;19;20018;-64
2022/03/10 04:45:15;;;;;;;0.00;0.00;;;;;;;7.44;81.42;100307.06;7352761;19;20031;-64
2022/03/10 04:47:41;;;;;;;0.00;0.00;;;;;;;7.42;81.22;100308.84;7358852;19;20328;-64
2022/03/10 04:50:09;;;;;;;0.00;0.00;;;;;;;7.40;81.34;100313.22;7354108;19;20049;-64
2022/03/10 04:52:35;;;;;;;0.00;0.00;;;;;;;7.36;81.20;100308.94;7356413;19;20034;-65
2022/03/10 04:55:01;;;;;;;0.05;0.05;;;;;;;7.35;81.62;100312.44;7361955;19;20014;-64
2022/03/10 04:57:26;;;;;;;0.00;0.00;;;;;;;7.21;81.73;100288.41;7353650;19;20021;-64
2022/03/10 04:59:52;;;;;;;0.00;0.00;;;;;;;7.31;81.69;100312.50;7361800;19;20014;-65
2022/03/10 05:02:18;;;;;;;0.00;0.00;;;;;;;7.28;81.36;100318.59;7357891;19;20122;-65
2022/03/10 05:05:02;;;;;;;0.09;0.09;;;;;;;7.15;81.25;100288.50;3299848;19;10150824;-65
2022/03/10 05:07:28;;;;;;;0.03;0.03;;;;;;;7.24;81.33;100309.13;6038792;19;10001003;-65
2022/03/10 05:09:53;;;;;;;0.00;0.00;;;;;;;7.16;81.42;100300.59;7356826;19;20030;-65
2022/03/10 05:12:19;;;;;;;0.00;0.00;;;;;;;7.21;81.85;100314.38;7360379;19;20018;-65
2022/03/10 05:14:44;;;;;;;0.00;0.00;;;;;;;7.21;81.71;100322.16;7351225;19;20015;-65
2022/03/10 05:17:10;;;;;;;0.00;0.00;;;;;;;7.21;81.39;100317.81;7357130;19;20029;-65
2022/03/10 05:19:35;;;;;;;0.00;0.00;;;;;;;7.18;81.61;100319.59;7360732;19;20002;-65
2022/03/10 05:22:00;;;;;;;0.00;0.00;;;;;;;7.17;81.92;100315.28;7344259;19;20044;-65
2022/03/10 05:24:26;;;;;;;0.00;0.00;;;;;;;7.17;81.83;100317.91;7360619;19;20018;-65
2022/03/10 05:26:51;;;;;;;0.05;0.05;;;;;;;7.15;81.66;100310.13;7346340;19;20014;-64
2022/03/10 05:29:17;;;;;;;0.00;0.00;;;;;;;7.16;81.91;100313.59;7357138;19;20010;-65
2022/03/10 05:31:42;;;;;;;0.10;0.10;;;;;;;7.16;81.90;100316.19;7357664;19;20042;-65
2022/03/10 05:34:08;;;;;;;0.00;0.00;;;;;;;7.14;81.57;100323.13;7359113;19;20066;-65
2022/03/10 05:36:34;;;;;;;0.00;0.00;;;;;;;7.14;81.92;100323.97;7356591;19;20017;-65
2022/03/10 05:39:00;;;;;;;0.00;0.00;;;;;;;7.13;81.70;100326.59;7356131;19;20673;-65
2022/03/10 05:41:26;;;;;;;0.00;0.00;;;;;;;7.12;81.93;100332.69;7357697;19;20729;-65
2022/03/10 05:43:51;;;;;;;0.00;0.00;;;;;;;7.11;81.64;100323.19;7353456;19;20022;-65
2022/03/10 05:46:17;;;;;;;0.00;0.00;;;;;;;7.10;81.62;100321.47;7358377;19;20007;-64
2022/03/10 05:48:42;;;;;;;0.00;0.00;;;;;;;6.83;81.96;100275.97;7355936;19;20009;-64
2022/03/10 05:51:08;;;;;;;0.00;0.00;;;;;;;7.10;81.57;100319.72;7357012;19;20384;-64
2022/03/10 05:53:33;;;;;;;0.00;0.00;;;;;;;7.00;81.89;100303.44;7354866;19;20019;-65
2022/03/10 05:55:59;;;;;;;0.08;0.08;;;;;;;7.12;81.96;100330.09;7354065;19;20019;-65
2022/03/10 05:58:24;;;;;;;0.00;0.00;;;;;;;7.12;81.83;100332.69;7357463;19;20042;-64
2022/03/10 06:00:50;;;;;;;0.05;0.05;;;;;;;7.11;81.80;100330.97;7357723;19;20018;-65
2022/03/10 06:03:15;;;;;;;0.00;0.00;;;;;;;7.13;81.86;100337.84;7357974;19;20003;-64
2022/03/10 06:05:40;;;;;;;0.00;0.00;;;;;;;7.13;81.75;100337.00;7359874;19;20014;-64
2022/03/10 06:08:06;;;;;;;0.00;0.00;;;;;;;7.07;81.40;100337.09;7366513;19;20025;-65
2022/03/10 06:10:32;;;;;;;0.10;0.10;;;;;;;7.06;81.34;100340.56;7370293;19;20116;-65
2022/03/10 06:12:57;;;;;;;0.00;0.00;;;;;;;7.09;81.58;100354.34;7368827;19;20022;-65
2022/03/10 06:15:23;;;;;;;0.00;0.00;;;;;;;7.08;81.25;100350.03;7366589;19;20025;-65
2022/03/10 06:17:48;;;;;;;0.00;0.00;;;;;;;7.06;81.29;100356.13;7361816;19;20026;-64
2022/03/10 06:20:14;;;;;;;0.00;0.00;;;;;;;7.05;80.73;100364.81;7356227;19;20022;-64
2022/03/10 06:22:40;;;;;;;0.10;0.10;;;;;;;6.91;81.13;100342.50;7360216;19;20465;-65
2022/03/10 06:25:06;;;;;;;0.00;0.00;;;;;;;6.98;81.14;100364.88;7364761;19;20034;-65
2022/03/10 06:27:32;;;;;;;0.10;0.10;;;;;;;6.94;80.71;100373.56;7360328;19;20014;-65
2022/03/10 06:29:57;;;;;;;0.00;0.00;;;;;;;6.86;81.36;100359.84;7362820;19;20809;-64
2022/03/10 06:32:24;;;;;;;0.00;0.00;;;;;;;6.91;81.03;100376.22;7362014;19;20046;-65
2022/03/10 06:34:52;;;;;;;0.00;0.00;;;;;;;6.87;80.87;100377.16;7364078;19;20006;-64
2022/03/10 06:37:18;;;;;;;0.00;0.00;;;;;;;6.83;81.08;100380.66;7361712;19;20014;-64
2022/03/10 06:39:44;;;;;;;0.00;0.00;;;;;;;6.81;81.06;100382.41;7359298;19;20019;-65
2022/03/10 06:42:10;;;;;;;0.00;0.00;;;;;;;6.76;81.04;100385.06;7362248;19;20018;-65
2022/03/10 06:44:36;;;;;;;0.00;0.00;;;;;;;6.74;80.85;100380.75;7348175;19;20028;-65
2022/03/10 06:47:04;;;;;;;0.10;0.10;;;;;;;6.63;80.54;100361.88;7364048;19;20017;-64
2022/03/10 06:49:29;;;;;;;0.00;0.00;;;;;;;6.70;80.69;100384.28;7359436;19;20036;-64
2022/03/10 06:51:55;;;;;;;0.00;0.00;;;;;;;6.68;80.85;100388.63;7367378;19;20006;-65
2022/03/10 06:54:20;;;;;;;0.00;0.00;;;;;;;6.63;80.75;100377.44;7372194;19;20022;-65
2022/03/10 06:56:46;;;;;;;0.00;0.00;;;;;;;6.61;81.09;100379.19;7365450;19;20012;-65
2022/03/10 06:59:12;;;;;;;0.00;0.00;;;;;;;6.57;80.80;100377.50;7371561;19;20006;-65
2022/03/10 07:01:38;;;;;;;0.00;0.00;;;;;;;6.53;81.02;100381.00;7366516;19;20006;-64
2022/03/10 07:04:03;;;;;;;0.00;0.00;;;;;;;6.52;81.31;100389.69;7369233;19;20018;-65
2022/03/10 07:06:34;;;;;;;0.10;0.10;;;;;;;6.50;81.21;100393.16;2013331;19;10022545;-65
2022/03/10 07:08:59;;;;;;;0.00;0.00;;;;;;;6.46;81.30;100399.25;6644929;19;10000520;-64
2022/03/10 07:11:25;;;;;;;0.10;0.10;;;;;;;6.46;81.41;100401.84;7360007;19;20010;-65
2022/03/10 07:13:52;;;;;;;0.00;0.00;;;;;;;6.46;81.35;100407.03;7358732;19;20014;-65
2022/03/10 07:16:18;;;;;;;0.00;0.00;;;;;;;6.45;81.32;100405.31;7355287;19;20034;-65
2022/03/10 07:18:50;;;;;;;0.00;0.00;;;;;;;6.41;81.63;100402.75;7355753;19;20179;-64
2022/03/10 07:21:19;;;;;;;0.10;0.10;;;;;;;6.47;81.29;100403.56;7352836;19;20006;-64
2022/03/10 07:23:45;;;;;;;0.00;0.00;;;;;;;6.42;81.36;100400.16;7356627;19;20002;-65
2022/03/10 07:26:11;;;;;;;0.00;0.00;;;;;;;6.47;81.65;100403.56;7353797;19;20067;-64
2022/03/10 07:28:37;;;;;;;0.00;0.00;;;;;;;6.48;81.66;100405.25;7347227;19;20014;-64
2022/03/10 07:31:02;;;;;;;0.00;0.00;;;;;;;6.49;81.69;100407.00;7355264;19;20006;-64
2022/03/10 07:33:28;;;;;;;0.00;0.00;;;;;;;6.49;81.76;100412.19;7355521;19;20104;-65
2022/03/10 07:35:53;;;;;;;0.05;0.05;;;;;;;6.54;81.45;100424.22;7349097;19;20014;-64
2022/03/10 07:38:19;;;;;;;0.00;0.00;;;;;;;6.55;81.65;100420.78;7352104;19;20142;-64
2022/03/10 07:40:44;;;;;;;0.00;0.00;;;;;;;6.57;81.60;100426.81;7356018;19;20036;-65
2022/03/10 07:43:10;;;;;;;0.00;0.00;;;;;;;6.58;81.89;100431.13;7351716;19;20010;-64
2022/03/10 07:45:35;;;;;;;0.00;0.00;;;;;;;6.50;81.87;100419.09;7355797;19;20010;-64
2022/03/10 07:48:01;;;;;;;0.00;0.00;;;;;;;6.63;81.75;100431.91;7351986;19;21031;-64
2022/03/10 07:50:26;;;;;;;0.00;0.00;;;;;;;6.65;81.70;100438.81;7355919;19;20716;-64
2022/03/10 07:52:52;;;;;;;0.00;0.00;;;;;;;6.67;81.47;100431.88;7366053;19;20056;-64
2022/03/10 07:55:17;;;;;;;0.00;0.00;;;;;;;6.64;81.64;100425.84;7359826;19;20490;-64
2022/03/10 07:57:43;;;;;;;0.00;0.00;;;;;;;6.70;81.66;100431.00;7350140;19;20014;-64
2022/03/10 08:00:09;;;;;;;0.10;0.10;;;;;;;6.61;81.61;100415.53;7326597;19;20014;-64
2022/03/10 08:02:36;;;;;;;0.03;0.03;;;;;;;6.71;81.53;100433.56;7352111;19;20093;-64
2022/03/10 08:05:02;;;;;;;0.10;0.10;;;;;;;6.65;81.29;100419.81;7357214;19;20015;-64
2022/03/10 08:07:32;;;;;;;0.00;0.00;;;;;;;6.77;81.74;100440.41;7353256;19;20011;-64
2022/03/10 08:10:01;;;;;;;0.00;0.00;;;;;;;6.81;81.64;100438.66;7351027;19;20041;-64
2022/03/10 08:12:29;;;;;;;0.00;0.00;;;;;;;6.86;81.36;100444.66;7344834;19;20026;-65
2022/03/10 08:14:55;;;;;;;0.00;0.00;;;;;;;6.88;81.43;100446.34;7344639;19;20581;-64
2022/03/10 08:17:20;;;;;;;0.10;0.10;;;;;;;6.93;81.43;100444.53;7342648;19;20006;-64
2022/03/10 08:19:46;;;;;;;0.00;0.00;;;;;;;6.94;81.14;100438.47;7355645;19;20121;-64
2022/03/10 08:22:11;;;;;;;0.00;0.00;;;;;;;6.96;81.11;100439.34;7356734;19;20003;-65
2022/03/10 08:24:38;;;;;;;0.00;0.00;;;;;;;6.98;81.20;100436.72;7358856;19;20088;-65
2022/03/10 08:27:04;;;;;;;0.00;0.00;;;;;;;6.98;81.22;100427.19;7357166;19;20115;-64
2022/03/10 08:29:30;;;;;;;0.00;0.00;;;;;;;6.95;81.23;100418.59;7357106;19;20094;-64
2022/03/10 08:31:55;;;;;;;0.00;0.00;;;;;;;7.06;81.40;100431.44;7346366;19;20887;-64
2022/03/10 08:34:21;;;;;;;0.00;0.00;;;;;;;7.13;81.17;100446.03;7355915;19;20588;-64
2022/03/10 08:36:46;;;;;;;0.00;0.00;;;;;;;7.17;81.42;100442.53;7353918;19;20010;-64
2022/03/10 08:39:13;;;;;;;0.10;0.10;;;;;;;7.22;81.23;100435.53;7356027;19;20020;-64
2022/03/10 08:41:38;;;;;;;0.10;0.10;;;;;;;7.26;81.33;100440.69;7355777;19;20014;-64
2022/03/10 08:44:04;;;;;;;0.00;0.00;;;;;;;7.28;80.92;100435.44;7353006;19;20025;-64
2022/03/10 08:46:29;;;;;;;0.10;0.10;;;;;;;7.31;80.75;100451.00;7355637;19;20014;-64
2022/03/10 08:48:55;;;;;;;0.10;0.10;;;;;;;7.33;80.91;100438.84;7353251;19;20704;-64
2022/03/10 08:51:20;;;;;;;0.00;0.00;;;;;;;7.33;80.66;100441.44;7354499;19;20121;-65
2022/03/10 08:53:45;;;;;;;0.10;0.10;;;;;;;7.36;80.29;100449.22;7354723;19;20018;-64
2022/03/10 08:56:11;;;;;;;0.00;0.00;;;;;;;7.40;80.27;100440.50;7351965;19;20426;-65
2022/03/10 08:58:36;;;;;;;0.10;0.10;;;;;;;7.41;80.13;100417.97;7356083;19;20089;-64
2022/03/10 09:01:02;;;;;;;0.00;0.00;;;;;;;7.71;80.33;100435.72;7352389;19;20046;-65
2022/03/10 09:03:27;;;;;;;0.00;0.00;;;;;;;7.96;80.24;100438.78;7358724;19;20034;-64
2022/03/10 09:05:53;;;;;;;0.00;0.00;;;;;;;8.22;79.92;100447.91;7348216;19;20384;-63
2022/03/10 09:08:33;;;;;;;0.00;0.00;;;;;;;8.50;79.54;100438.72;2576921;19;10022698;-64
2022/03/10 09:10:59;;;;;;;0.00;0.00;;;;;;;8.73;78.99;100455.69;6543607;19;10001208;-64
2022/03/10 09:13:25;;;;;;;0.00;0.00;;;;;;;8.98;78.93;100451.72;7358658;19;20451;-64
2022/03/10 09:15:51;;;;;;;0.10;0.10;;;;;;;9.15;78.23;100447.91;7358045;19;20022;-65
2022/03/10 09:18:17;;;;;;;0.00;0.00;;;;;;;9.24;77.89;100452.91;7356925;19;20454;-65
2022/03/10 09:20:42;;;;;;;0.00;0.00;;;;;;;9.27;77.39;100455.44;7360288;19;20014;-63
2022/03/10 09:23:08;;;;;;;0.10;0.10;;;;;;;9.26;77.27;100451.13;7364802;19;20358;-65
2022/03/10 09:25:34;;;;;;;0.00;0.00;;;;;;;9.22;77.50;100449.47;7360184;19;20010;-63
2022/03/10 09:27:59;;;;;;;0.08;0.08;;;;;;;9.17;77.47;100457.38;7354447;19;20320;-64
2022/03/10 09:30:24;;;;;;;0.10;0.10;;;;;;;9.21;77.69;100452.97;7358046;19;20034;-64
2022/03/10 09:32:50;;;;;;;0.00;0.00;;;;;;;9.14;77.88;100433.16;7352452;19;20082;-64
2022/03/10 09:35:17;;;;;;;0.00;0.00;;;;;;;9.47;78.20;100450.66;7352486;19;20025;-63
2022/03/10 09:37:42;;;;;;;0.00;0.00;;;;;;;9.72;78.08;100442.28;7358706;19;20006;-63
2022/03/10 09:40:09;;;;;;;0.00;0.00;;;;;;;9.98;77.61;100446.88;7356372;19;20010;-63
2022/03/10 09:42:35;;;;;;;0.00;0.00;;;;;;;10.30;77.37;100448.72;7351097;19;20032;-63
2022/03/10 09:45:09;;;;;;;0.00;0.00;;;;;;;10.56;76.29;100440.22;7364578;19;20014;-64
2022/03/10 09:47:40;;;;;;;0.10;0.10;;;;;;;10.84;76.38;100450.75;7359579;19;20496;-64
2022/03/10 09:50:13;;;;;;;0.00;0.00;;;;;;;11.14;76.02;100444.66;7363504;19;20014;-63
2022/03/10 09:52:41;;;;;;;0.00;0.00;;;;;;;11.23;75.14;100424.38;7364622;19;20014;-61
2022/03/10 09:55:07;;;;;;;0.00;0.00;;;;;;;11.61;74.65;100445.00;7360984;19;20034;-62
2022/03/10 09:57:35;;;;;;;0.00;0.00;;;;;;;11.79;73.97;100446.16;7339492;19;20046;-63
2022/03/10 10:00:01;;;;;;;0.00;0.00;;;;;;;11.76;73.40;100411.41;7362652;19;20561;-66
2022/03/10 10:02:29;;;;;;;0.00;0.00;;;;;;;12.11;73.83;100439.91;7360126;19;20011;-62
2022/03/10 10:04:56;;;;;;;0.00;0.00;;;;;;;12.36;73.55;100447.81;7361789;19;20101;-65
2022/03/10 10:07:26;;;;;;;0.00;0.00;;;;;;;12.65;73.24;100446.81;7363778;19;20371;-64
2022/03/10 10:09:54;;;;;;;0.00;0.00;;;;;;;13.05;72.91;100440.13;7359831;19;20013;-62
2022/03/10 10:12:24;;;;;;;0.00;0.00;;;;;;;13.37;72.49;100435.47;7363349;19;20026;-64
2022/03/10 10:14:50;;;;;;;0.00;0.00;;;;;;;13.66;71.42;100435.19;7360403;19;20432;-63
2022/03/10 10:17:16;;;;;;;0.00;0.00;;;;;;;13.92;71.13;100449.03;7348878;19;21212;-62
2022/03/10 10:19:42;;;;;;;0.00;0.00;;;;;;;14.02;70.22;100424.97;7355978;19;20007;-62
2022/03/10 10:22:23;;;;;;;0.10;0.10;;;;;;;14.41;70.23;100444.38;7355413;19;20031;-63
2022/03/10 10:24:54;;;;;;;0.10;0.10;;;;;;;14.49;69.47;100430.00;7358935;19;20026;-63
2022/03/10 10:27:22;;;;;;;0.00;0.00;;;;;;;14.63;69.01;100439.94;7363738;19;20010;-63
2022/03/10 10:29:51;;;;;;;0.00;0.00;;;;;;;14.81;68.95;100448.78;7359552;19;20027;-61
2022/03/10 10:32:47;;;;;;;0.00;0.00;;;;;;;15.08;69.42;100441.44;7347448;19;20011;-63
2022/03/10 10:35:20;;;;;;;0.00;0.00;;;;;;;15.22;68.48;100444.28;7258939;19;2004068;-64
2022/03/10 10:37:49;;;;;;;0.00;0.00;;;;;;;15.47;68.09;100437.91;7357695;19;20027;-64
2022/03/10 10:40:24;;;;;;;0.00;0.00;;;;;;;15.74;67.44;100449.75;7357818;19;20457;-62
2022/03/10 10:42:50;;;;;;;0.00;0.00;;;;;;;15.67;66.62;100443.09;7359388;19;20073;-63
2022/03/10 10:45:29;;;;;;;0.10;0.10;;;;;;;15.92;66.78;100444.56;7339766;19;20091;-62
2022/03/10 10:47:58;;;;;;;0.00;0.00;;;;;;;15.95;65.79;100457.56;7356839;19;20954;-63
2022/03/10 10:50:24;;;;;;;0.00;0.00;;;;;;;15.89;65.81;100452.59;7357276;19;20043;-63
2022/03/10 10:52:49;;;;;;;0.00;0.00;;;;;;;15.90;65.63;100443.75;7360400;19;20029;-62
2022/03/10 10:55:15;;;;;;;0.00;0.00;;;;;;;15.98;65.98;100431.06;7357162;19;20031;-62
2022/03/10 10:57:43;;;;;;;0.00;0.00;;;;;;;16.14;65.70;100429.38;7351889;19;20576;-62
2022/03/10 11:00:10;;;;;;;0.00;0.00;;;;;;;16.30;65.78;100427.66;7361324;19;20044;-63
2022/03/10 11:02:42;;;;;;;0.00;0.00;;;;;;;16.55;66.51;100431.69;7363299;19;20030;-62
2022/03/10 11:05:12;;;;;;;0.00;0.00;;;;;;;16.78;65.37;100428.75;7349757;19;20015;-62
2022/03/10 11:07:42;;;;;;;0.00;0.00;;;;;;;17.11;64.59;100430.50;7348405;19;20927;-63
2022/03/10 11:10:10;;;;;;;0.00;0.00;;;;;;;17.36;62.91;100433.50;7355392;19;20023;-65
2022/03/10 11:12:39;;;;;;;0.00;0.00;;;;;;;17.49;62.29;100424.94;7344601;19;20011;-66
2022/03/10 11:15:08;;;;;;;0.00;0.00;;;;;;;17.50;62.33;100406.34;7352374;19;20089;-65
2022/03/10 11:17:34;;;;;;;0.03;0.03;;;;;;;17.64;61.61;100413.50;7351465;19;20046;-65
2022/03/10 11:20:03;;;;;;;0.00;0.00;;;;;;;17.84;60.81;100415.91;7347767;19;20037;-65
2022/03/10 11:22:40;;;;;;;0.00;0.00;;;;;;;17.87;61.07;100405.13;7350356;19;20127;-64
2022/03/10 11:25:27;;;;;;;0.03;0.03;;;;;;;17.93;63.01;100403.09;7355779;19;20009;-65
2022/03/10 11:27:57;;;;;;;0.10;0.10;;;;;;;17.88;62.87;100401.56;7337956;19;20912;-64
2022/03/10 11:30:24;;;;;;;0.10;0.10;;;;;;;18.09;59.61;100414.44;7348150;19;20011;-63
2022/03/10 11:33:01;;;;;;;0.10;0.10;;;;;;;18.21;60.96;100403.19;2243354;19;10149916;-62
2022/03/10 11:35:41;;;;;;;0.00;0.00;;;;;;;18.33;60.77;100397.16;6645248;19;10001153;-63